Time;durP1;ratioP1;P1;durP2;ratioP2;P2;SDS_P1;SDS_P2;PMS_P1;PMS_P2;Temp;Humidity;BMP_temperature;BMP_pressure;BME280_temperature;BME280_humidity;BME280_pressure;Samples;Min_cycle;Max_cycle;Signal;HPM_P1;HPM_P2
2022/04/05 00:00:36;;;;;;;21.53;14.67;;;;;;;4.48;99.55;98472.77;3668703;79;98692;-86
2022/04/05 00:05:37;;;;;;;20.40;14.07;;;;;;;4.52;99.57;98472.17;3672269;79;99021;-84
2022/04/05 00:10:38;;;;;;;20.70;13.53;;;;;;;4.55;99.41;98458.59;3669436;79;99493;-81
2022/04/05 00:15:38;;;;;;;19.73;13.50;;;;;;;4.60;99.47;98465.61;3666598;79;99033;-80
2022/04/05 00:20:40;;;;;;;19.37;12.17;;;;;;;4.64;99.09;98454.91;3672843;78;98699;-83
2022/04/05 00:25:41;;;;;;;16.70;11.48;;;;;;;4.69;99.21;98449.69;3651851;79;103489;-84
2022/04/05 00:30:42;;;;;;;19.00;12.57;;;;;;;4.74;99.18;98450.67;3666538;79;99029;-84
2022/04/05 00:35:43;;;;;;;20.63;14.40;;;;;;;4.77;99.34;98450.67;3653818;79;99490;-82
2022/04/05 00:40:44;;;;;;;17.57;12.87;;;;;;;4.80;99.94;98432.77;3666142;79;99326;-82
2022/04/05 00:45:45;;;;;;;18.00;12.97;;;;;;;4.83;99.86;98431.98;3661460;79;99984;-82
2022/04/05 00:50:46;;;;;;;17.47;12.37;;;;;;;4.85;99.25;98434.52;3677074;79;99162;-82
2022/04/05 00:55:50;;;;;;;16.15;11.50;;;;;;;4.86;100.00;98421.69;3679886;78;98738;-84
2022/04/05 01:00:52;;;;;;;18.83;12.73;;;;;;;4.87;99.58;98432.78;3689713;79;105045;-87
2022/04/05 01:05:55;;;;;;;18.70;12.93;;;;;;;4.88;100.00;98428.88;3667183;79;99410;-83
2022/04/05 01:10:59;;;;;;;17.32;12.60;;;;;;;4.92;100.00;98427.71;3687238;78;99720;-85
2022/04/05 01:16:00;;;;;;;17.15;11.03;;;;;;;4.93;100.00;98436.11;3682410;79;98894;-83
2022/04/05 01:21:01;;;;;;;14.77;9.83;;;;;;;4.96;100.00;98440.77;3648163;78;99626;-82
2022/04/05 01:26:03;;;;;;;16.35;10.10;;;;;;;5.00;100.00;98439.41;3677947;79;98585;-83
2022/04/05 01:31:03;;;;;;;14.67;10.33;;;;;;;5.03;100.00;98445.45;3688743;78;98719;-86
2022/04/05 01:36:05;;;;;;;14.10;9.35;;;;;;;5.05;100.00;98439.02;3667165;79;99520;-85
2022/04/05 01:41:06;;;;;;;14.05;8.38;;;;;;;5.08;99.75;98443.11;3689573;79;99052;-83
2022/04/05 01:46:07;;;;;;;11.83;7.75;;;;;;;5.11;99.67;98451.09;3669894;79;99133;-83
2022/04/05 01:51:08;;;;;;;10.50;5.73;;;;;;;5.14;99.37;98447.61;3668710;79;98697;-86
2022/04/05 01:56:09;;;;;;;10.75;5.00;;;;;;;5.12;99.10;98449.35;3589659;80;99435;-84
2022/04/05 02:01:10;;;;;;;10.50;5.55;;;;;;;5.12;98.87;98456.77;3585003;80;98454;-84
2022/04/05 02:06:11;;;;;;;10.30;6.30;;;;;;;5.10;98.82;98450.91;3587152;81;98538;-83
2022/04/05 02:11:13;;;;;;;12.70;7.20;;;;;;;5.11;98.81;98463.37;3605288;81;99237;-84
2022/04/05 02:16:14;;;;;;;10.30;6.45;;;;;;;5.12;99.15;98455.41;3565961;81;99392;-87
2022/04/05 02:21:15;;;;;;;11.37;7.00;;;;;;;5.13;98.96;98467.87;3570265;81;99435;-83
2022/04/05 02:26:16;;;;;;;14.18;8.18;;;;;;;5.16;99.08;98467.08;3597490;81;98531;-87
2022/04/05 02:31:17;;;;;;;15.70;9.18;;;;;;;5.17;99.62;98457.72;3573037;81;98603;-85
2022/04/05 02:36:18;;;;;;;15.63;9.23;;;;;;;5.19;100.00;98467.67;3568026;81;98686;-85
2022/04/05 02:41:19;;;;;;;13.67;9.00;;;;;;;5.18;100.00;98475.66;3610202;81;98641;-84
2022/04/05 02:46:20;;;;;;;11.88;7.17;;;;;;;5.18;100.00;98482.48;3558513;81;98715;-87
2022/04/05 02:51:23;;;;;;;9.57;5.10;;;;;;;5.17;100.00;98467.27;3556546;80;99228;-84
2022/04/05 02:56:24;;;;;;;9.78;4.50;;;;;;;5.18;99.63;98485.97;3539607;81;98444;-88
2022/04/05 03:01:25;;;;;;;8.27;3.80;;;;;;;5.18;98.75;98490.06;3572464;81;98200;-85
2022/04/05 03:06:26;;;;;;;6.20;3.02;;;;;;;5.14;97.94;98491.99;3558278;82;98510;-84
2022/04/05 03:11:27;;;;;;;7.77;3.50;;;;;;;5.09;97.26;98493.77;3564449;82;98393;-85
2022/04/05 03:16:28;;;;;;;8.07;3.30;;;;;;;5.06;97.03;98492.37;3554489;80;98309;-85
2022/04/05 03:21:29;;;;;;;6.17;3.10;;;;;;;5.02;96.89;98497.82;3581433;81;98635;-87
2022/04/05 03:26:30;;;;;;;8.65;3.37;;;;;;;4.99;96.69;98498.61;3562430;81;98363;-85
2022/04/05 03:31:31;;;;;;;8.43;2.97;;;;;;;4.97;96.84;98504.25;3548304;81;98364;-86
2022/04/05 03:36:33;;;;;;;7.13;2.80;;;;;;;4.94;96.03;98500.34;3572433;81;98400;-85
2022/04/05 03:41:34;;;;;;;7.40;3.20;;;;;;;4.91;95.40;98500.34;3481905;82;98500;-84
2022/04/05 03:46:35;;;;;;;6.47;2.90;;;;;;;4.84;95.02;98497.58;3532064;82;98561;-87
2022/04/05 03:51:36;;;;;;;6.92;2.70;;;;;;;4.78;94.81;98501.84;3521887;82;98384;-84
2022/04/05 03:56:37;;;;;;;7.37;3.40;;;;;;;4.71;94.69;98516.25;3573806;81;98353;-84
2022/04/05 04:01:38;;;;;;;7.10;2.83;;;;;;;4.66;94.26;98519.34;3603156;81;98191;-80
2022/04/05 04:06:38;;;;;;;7.07;2.70;;;;;;;4.64;94.22;98516.80;3587008;81;98491;-80
2022/04/05 04:11:44;;;;;;;9.40;3.40;;;;;;;4.53;94.19;98508.56;3596755;80;98431;-83
2022/04/05 04:16:46;;;;;;;7.20;2.80;;;;;;;4.57;94.27;98530.37;3588235;80;98562;-82
2022/04/05 04:21:47;;;;;;;9.55;3.35;;;;;;;4.53;94.04;98535.80;3598208;81;98353;-83
2022/04/05 04:26:48;;;;;;;9.43;2.50;;;;;;;4.53;93.85;98545.94;3578545;81;98482;-84
2022/04/05 04:31:49;;;;;;;11.47;3.00;;;;;;;4.52;93.89;98543.78;3575276;81;100111;-87
2022/04/05 04:36:50;;;;;;;8.18;2.85;;;;;;;4.51;93.90;98555.84;3588982;81;98547;-82
2022/04/05 04:41:56;;;;;;;7.67;3.10;;;;;;;4.50;93.71;98558.38;3585856;81;105285;-83
2022/04/05 04:46:54;;;;;;;8.17;2.70;;;;;;;4.49;92.84;98577.81;3588949;81;98450;-82
2022/04/05 04:51:55;;;;;;;8.00;2.43;;;;;;;4.47;92.63;98578.79;3579299;81;98470;-82
2022/04/05 04:56:56;;;;;;;8.00;2.50;;;;;;;4.44;92.30;98587.70;3558454;81;98618;-83
2022/04/05 05:01:57;;;;;;;6.53;1.90;;;;;;;4.45;92.24;98587.34;3558988;80;98740;-84
2022/04/05 05:06:58;;;;;;;8.77;2.67;;;;;;;4.46;92.13;98594.34;3535265;81;106624;-84
2022/04/05 05:11:59;;;;;;;8.90;2.20;;;;;;;4.51;91.96;98601.36;3550203;80;98485;-83
2022/04/05 05:17:00;;;;;;;11.10;2.17;;;;;;;4.54;91.15;98606.82;3536942;80;98276;-82
2022/04/05 05:22:01;;;;;;;10.23;2.42;;;;;;;4.60;91.48;98608.62;3496370;82;98783;-85
2022/04/05 05:27:02;;;;;;;10.57;1.73;;;;;;;4.66;90.29;98618.78;3478810;82;99073;-83
2022/04/05 05:32:04;;;;;;;10.50;2.85;;;;;;;4.73;89.93;98621.53;3511639;82;98474;-84
2022/04/05 05:37:05;;;;;;;8.60;1.72;;;;;;;4.78;89.84;98629.91;3534611;82;98585;-83
2022/04/05 05:42:08;;;;;;;11.03;2.25;;;;;;;4.82;88.21;98642.98;3526680;82;98539;-82
2022/04/05 05:47:09;;;;;;;12.98;4.53;;;;;;;4.82;87.91;98656.04;3493111;82;98614;-81
2022/04/05 05:52:10;;;;;;;10.13;2.85;;;;;;;4.85;88.35;98668.13;3512591;81;98776;-81
2022/04/05 05:57:10;;;;;;;8.13;2.17;;;;;;;4.85;87.96;98679.02;3522858;81;98673;-81
2022/04/05 06:02:11;;;;;;;7.40;2.07;;;;;;;4.87;87.81;98682.14;3526398;81;98708;-85
2022/04/05 06:07:12;;;;;;;14.37;3.63;;;;;;;4.87;86.23;98685.66;3519585;81;98439;-85
2022/04/05 06:12:13;;;;;;;7.62;2.22;;;;;;;4.90;85.82;98683.52;3507485;81;99162;-83
2022/04/05 06:17:14;;;;;;;14.10;4.27;;;;;;;4.93;85.57;98699.13;3529921;81;98360;-83
2022/04/05 06:22:15;;;;;;;13.48;4.92;;;;;;;4.98;85.81;98708.88;3543372;81;99283;-84
2022/04/05 06:27:16;;;;;;;11.10;2.10;;;;;;;5.05;85.75;98723.89;3528404;80;99187;-86
2022/04/05 06:32:17;;;;;;;11.15;2.30;;;;;;;5.06;84.23;98712.62;3525349;81;98712;-81
2022/04/05 06:37:18;;;;;;;7.70;1.87;;;;;;;5.11;84.41;98717.71;3542169;81;98615;-78
2022/04/05 06:42:19;;;;;;;10.80;2.10;;;;;;;5.12;84.46;98723.95;3542325;81;98347;-80
2022/04/05 06:47:21;;;;;;;7.77;2.30;;;;;;;5.18;83.73;98730.61;3641527;79;98530;-78
2022/04/05 06:52:22;;;;;;;8.75;2.65;;;;;;;5.22;82.82;98734.91;3645328;79;99266;-79
2022/04/05 06:57:23;;;;;;;10.20;2.40;;;;;;;5.41;82.74;98731.09;3617419;79;99680;-79
2022/04/05 07:02:24;;;;;;;10.73;2.00;;;;;;;5.41;82.74;98731.09;3633300;79;99133;-79
2022/04/05 07:07:25;;;;;;;8.83;2.07;;;;;;;5.50;81.72;98751.97;3638386;79;98550;-78
2022/04/05 07:12:26;;;;;;;15.33;4.33;;;;;;;5.59;79.96;98756.49;3626285;79;98920;-78
2022/04/05 07:17:27;;;;;;;12.60;2.00;;;;;;;5.66;81.52;98754.58;3636161;79;98843;-79
2022/04/05 07:22:28;;;;;;;12.63;3.80;;;;;;;5.79;80.14;98757.14;3617765;79;98505;-79
2022/04/05 07:27:29;;;;;;;13.68;2.47;;;;;;;5.89;79.62;98769.31;3578348;80;99504;-77
2022/04/05 07:32:42;;;;;;;15.97;4.43;;;;;;;6.01;78.80;98773.81;3518668;82;98531;-78
2022/04/05 07:37:43;;;;;;;10.63;2.83;;;;;;;6.10;78.19;98763.88;3647965;79;99516;-78
2022/04/05 07:42:46;;;;;;;9.20;2.47;;;;;;;6.15;76.22;98784.78;3660205;79;98768;-79
2022/04/05 07:47:47;;;;;;;20.43;6.10;;;;;;;6.30;76.76;98786.38;3649810;79;98295;-79
2022/04/05 07:52:50;;;;;;;14.67;3.50;;;;;;;6.40;76.78;98787.55;3624034;79;98337;-79
2022/04/05 07:57:51;;;;;;;20.43;6.87;;;;;;;6.51;75.77;98776.05;3639246;79;98684;-79
2022/04/05 08:02:52;;;;;;;7.37;2.37;;;;;;;6.65;76.52;98789.73;3651526;79;99478;-77
2022/04/05 08:07:55;;;;;;;16.40;5.67;;;;;;;6.77;73.78;98786.61;3641155;79;99240;-78
2022/04/05 08:12:57;;;;;;;8.63;2.05;;;;;;;6.93;75.23;98794.59;3656129;79;98678;-83
2022/04/05 08:17:58;;;;;;;10.20;3.00;;;;;;;7.09;71.55;98809.25;3647102;79;99077;-80
2022/04/05 08:22:59;;;;;;;12.47;4.80;;;;;;;7.11;72.19;98803.58;3654199;79;123253;-78
2022/04/05 08:28:00;;;;;;;11.00;3.55;;;;;;;7.27;72.43;98819.57;3650639;79;98966;-78
2022/04/05 08:33:02;;;;;;;12.85;3.75;;;;;;;7.45;71.66;98836.73;3664924;79;98375;-78
2022/04/05 08:38:03;;;;;;;9.25;2.50;;;;;;;7.45;71.09;98833.98;3669591;78;98357;-78
2022/04/05 08:43:05;;;;;;;14.95;4.78;;;;;;;7.56;71.34;98836.91;3642502;78;98041;-78
2022/04/05 08:48:10;;;;;;;9.20;2.00;;;;;;;7.73;69.91;98842.91;3672365;79;98308;-77
2022/04/05 08:53:14;;;;;;;7.07;1.80;;;;;;;8.03;70.06;98850.06;3668776;79;97993;-79
2022/04/05 08:58:16;;;;;;;8.08;1.77;;;;;;;8.49;68.73;98860.80;3658274;79;98365;-79
2022/04/05 09:03:17;;;;;;;7.17;1.87;;;;;;;8.93;68.78;98853.45;3659863;77;97891;-79
2022/04/05 09:08:23;;;;;;;8.25;1.60;;;;;;;9.34;67.55;98861.16;3651583;79;99547;-78
2022/04/05 09:13:26;;;;;;;6.70;1.75;;;;;;;9.66;67.44;98864.34;3660065;79;98269;-78
2022/04/05 09:18:39;;;;;;;7.05;2.02;;;;;;;9.81;66.00;98881.48;3647874;79;98144;-76
2022/04/05 09:23:43;;;;;;;5.12;2.22;;;;;;;10.04;63.36;98873.40;3655881;79;98614;-76
2022/04/05 09:28:50;;;;;;;7.60;2.10;;;;;;;10.37;64.89;98877.48;3685825;79;98614;-74
2022/04/05 09:34:19;;;;;;;6.75;1.90;;;;;;;11.06;63.35;98877.67;3662992;79;98569;-77
2022/04/05 09:39:29;;;;;;;7.47;1.62;;;;;;;11.39;60.17;98887.75;3664172;79;98734;-76
2022/04/05 09:44:38;;;;;;;7.87;2.30;;;;;;;11.50;60.72;98884.83;3647315;80;98617;-77
2022/04/05 09:49:42;;;;;;;8.90;1.77;;;;;;;11.76;60.42;98897.17;3673038;79;98450;-75
2022/04/05 09:54:43;;;;;;;8.53;1.85;;;;;;;11.83;58.00;98901.78;3560040;81;98667;-76
2022/04/05 09:59:51;;;;;;;9.63;2.80;;;;;;;12.31;58.27;98904.80;3665095;79;98597;-76
2022/04/05 10:05:06;;;;;;;7.43;2.80;;;;;;;12.51;55.78;98904.16;3630074;78;98873;-77
2022/04/05 10:10:10;;;;;;;7.70;2.58;;;;;;;12.62;54.79;98906.88;3668744;79;98393;-76
2022/04/05 10:15:14;;;;;;;8.03;1.92;;;;;;;13.17;56.23;98913.74;3643697;79;98652;-76
2022/04/05 10:20:18;;;;;;;6.92;1.98;;;;;;;13.64;55.24;98919.11;3656196;79;98429;-76
2022/04/05 10:25:23;;;;;;;7.53;2.43;;;;;;;14.32;54.43;98925.80;3640688;79;98570;-76
2022/04/05 10:30:48;;;;;;;6.28;1.92;;;;;;;14.63;54.21;98915.81;3668202;79;98575;-77
2022/04/05 10:35:57;;;;;;;6.65;2.00;;;;;;;15.00;52.26;98934.48;3637968;79;98814;-75
2022/04/05 10:41:16;;;;;;;4.08;1.67;;;;;;;14.69;48.52;98938.38;3637833;79;98564;-77
2022/04/05 10:46:42;;;;;;;4.87;1.50;;;;;;;14.36;45.34;98936.16;3626596;79;98718;-77
2022/04/05 10:52:18;;;;;;;7.20;2.15;;;;;;;13.85;47.26;98944.80;3658026;79;98609;-77
2022/04/05 10:57:34;;;;;;;5.83;1.80;;;;;;;14.06;47.74;98949.78;3630419;79;98675;-76
2022/04/05 11:02:51;;;;;;;5.23;1.73;;;;;;;13.85;45.63;98947.57;3631323;79;98497;-76
2022/04/05 11:08:01;;;;;;;11.45;2.02;;;;;;;13.83;45.87;98948.63;3579777;79;99121;-77
2022/04/05 11:13:08;;;;;;;6.08;2.05;;;;;;;14.04;45.62;98963.29;3644909;79;99191;-77
2022/04/05 11:18:11;;;;;;;4.97;1.60;;;;;;;14.61;44.84;98961.16;3632641;79;98704;-76
2022/04/05 11:23:14;;;;;;;10.63;2.10;;;;;;;14.78;43.48;98970.33;3640715;79;98169;-76
2022/04/05 11:28:20;;;;;;;7.62;2.00;;;;;;;14.73;43.14;98987.52;3641879;79;98764;-78
2022/04/05 11:33:37;;;;;;;8.05;1.98;;;;;;;14.32;42.60;98970.86;3646971;79;98204;-76
2022/04/05 11:38:48;;;;;;;6.05;1.82;;;;;;;14.00;43.64;98983.34;3641948;79;98341;-77
2022/04/05 11:43:57;;;;;;;7.33;1.73;;;;;;;14.03;44.34;98970.03;3657857;79;98559;-76
2022/04/05 11:49:01;;;;;;;8.50;2.07;;;;;;;14.03;44.34;98970.03;3609885;79;100452;-76
2022/04/05 11:54:07;;;;;;;7.60;2.12;;;;;;;14.01;44.45;98974.45;3640611;79;98696;-76
2022/04/05 11:59:09;;;;;;;9.75;2.30;;;;;;;13.95;43.56;98980.34;3688821;79;98679;-77
2022/04/05 12:04:20;;;;;;;8.07;1.80;;;;;;;14.05;42.59;98976.50;3695398;77;98748;-76
2022/04/05 12:09:23;;;;;;;16.45;6.08;;;;;;;13.90;40.56;98983.62;3513360;81;99324;-79
2022/04/05 12:14:29;;;;;;;12.87;4.00;;;;;;;13.69;40.54;98988.30;3474008;82;98588;-77
2022/04/05 12:19:35;;;;;;;8.25;3.33;;;;;;;13.36;41.79;98999.16;3675498;78;98386;-77
2022/04/05 12:24:43;;;;;;;6.03;2.22;;;;;;;12.99;41.14;98998.99;3660583;79;99337;-77
2022/04/05 12:29:44;;;;;;;18.12;2.58;;;;;;;12.94;41.60;99001.43;3693378;78;98897;-76
2022/04/05 12:34:45;;;;;;;8.83;3.03;;;;;;;12.64;41.58;99007.20;3655059;79;98949;-76
2022/04/05 12:39:50;;;;;;;6.28;1.52;;;;;;;12.64;42.22;99007.95;3648646;79;98633;-77
2022/04/05 12:44:59;;;;;;;10.80;1.70;;;;;;;12.62;42.82;99012.34;3667484;78;99056;-77
2022/04/05 12:50:01;;;;;;;6.15;2.05;;;;;;;12.34;41.00;99017.03;3647566;79;98945;-77
2022/04/05 12:55:14;;;;;;;11.75;2.30;;;;;;;12.01;41.11;99015.27;3600832;78;98517;-79
2022/04/05 13:00:19;;;;;;;11.55;1.67;;;;;;;12.07;41.14;99028.16;3664920;78;98836;-77
2022/04/05 13:10:47;;;;;;;9.27;2.37;;;;;;;12.00;42.37;99026.88;3645634;79;121982;-76
2022/04/05 13:16:09;;;;;;;4.50;1.45;;;;;;;12.01;41.78;99029.84;3624097;79;98795;-78
2022/04/05 13:21:17;;;;;;;6.95;1.80;;;;;;;11.96;41.71;99026.77;3669777;79;98605;-77
2022/04/05 13:26:21;;;;;;;6.63;1.50;;;;;;;11.90;41.71;99024.31;3639852;79;99043;-77
2022/04/05 13:31:23;;;;;;;14.83;1.70;;;;;;;11.90;42.39;99033.37;3640165;79;98631;-77
2022/04/05 13:36:24;;;;;;;4.22;1.37;;;;;;;11.74;41.01;99040.13;3671686;78;98861;-77
2022/04/05 13:41:25;;;;;;;4.97;1.40;;;;;;;11.46;42.41;99035.61;3658798;79;98751;-76
2022/04/05 13:46:31;;;;;;;5.83;1.97;;;;;;;11.44;42.46;99038.02;3659964;78;98610;-77
2022/04/05 13:51:33;;;;;;;6.67;1.62;;;;;;;11.44;43.20;99025.00;3666722;79;98574;-76
2022/04/05 13:56:36;;;;;;;5.87;1.63;;;;;;;11.44;43.20;99025.00;3640004;79;98642;-76
2022/04/05 14:01:38;;;;;;;4.53;1.42;;;;;;;11.44;43.47;99026.99;3643168;79;98695;-77
2022/04/05 14:06:40;;;;;;;10.07;2.97;;;;;;;11.43;42.53;99037.80;3635319;79;98733;-77
2022/04/05 14:11:43;;;;;;;6.08;1.42;;;;;;;11.21;41.41;99031.83;3620342;79;98723;-76
2022/04/05 14:16:44;;;;;;;7.47;2.12;;;;;;;11.21;42.54;99034.59;3614549;79;98681;-76
2022/04/05 14:21:45;;;;;;;9.47;1.90;;;;;;;11.23;42.91;99028.06;3636745;79;98674;-78
2022/04/05 14:26:48;;;;;;;6.83;1.65;;;;;;;11.30;43.45;99028.56;3637240;79;98640;-77
2022/04/05 14:31:49;;;;;;;7.00;2.03;;;;;;;11.20;43.30;99023.39;3639334;79;98725;-77
2022/04/05 14:36:52;;;;;;;6.27;1.70;;;;;;;11.14;43.85;99027.81;3626642;79;98862;-77
2022/04/05 14:41:53;;;;;;;9.73;2.45;;;;;;;11.19;44.40;99030.10;3627912;79;98224;-77
2022/04/05 14:46:54;;;;;;;9.97;2.77;;;;;;;11.09;44.02;99024.72;3613927;79;98543;-77
2022/04/05 14:51:57;;;;;;;7.78;1.35;;;;;;;10.96;43.37;99033.36;3572970;80;98867;-77
2022/04/05 14:57:01;;;;;;;5.43;1.73;;;;;;;10.72;44.10;99031.09;3542422;81;98679;-76
2022/04/05 15:02:04;;;;;;;8.43;2.08;;;;;;;10.67;44.14;99031.55;3551067;81;98740;-79
2022/04/05 15:07:08;;;;;;;5.50;1.52;;;;;;;10.63;43.97;99039.05;3531875;82;98583;-79
2022/04/05 15:12:09;;;;;;;4.60;1.20;;;;;;;10.45;43.42;99037.10;3538191;81;98782;-77
2022/04/05 15:17:10;;;;;;;6.42;1.60;;;;;;;10.28;44.59;99036.70;3537233;81;99040;-76
2022/04/05 15:22:11;;;;;;;5.65;1.37;;;;;;;10.24;44.64;99038.69;3552730;81;98687;-78
2022/04/05 15:27:12;;;;;;;3.97;1.20;;;;;;;10.18;44.27;99045.82;3539779;81;98608;-77
2022/04/05 15:32:15;;;;;;;7.30;1.72;;;;;;;10.06;44.40;99038.09;3547562;82;98479;-78
2022/04/05 15:37:18;;;;;;;6.17;1.42;;;;;;;9.94;44.31;99041.89;3531770;81;98616;-78
2022/04/05 15:42:20;;;;;;;5.08;1.52;;;;;;;9.73;45.04;99035.98;3520048;82;98362;-78
2022/04/05 15:47:25;;;;;;;5.92;1.45;;;;;;;9.64;45.64;99045.84;3520622;80;98431;-77
2022/04/05 15:52:27;;;;;;;8.78;1.80;;;;;;;9.55;46.38;99046.91;3541410;82;98334;-79
2022/04/05 15:57:28;;;;;;;13.13;3.00;;;;;;;9.45;46.73;99047.77;3531108;81;98394;-77
2022/04/05 16:02:29;;;;;;;8.88;2.62;;;;;;;9.37;47.33;99049.00;3528095;81;98530;-77
2022/04/05 16:07:30;;;;;;;12.80;4.25;;;;;;;9.36;47.88;99056.45;3510477;81;98172;-77
2022/04/05 16:12:31;;;;;;;7.33;2.60;;;;;;;9.29;48.47;99057.88;3539091;81;98733;-76
2022/04/05 16:17:32;;;;;;;6.50;1.70;;;;;;;9.25;48.48;99059.05;3518088;81;98481;-77
2022/04/05 16:22:35;;;;;;;6.42;1.65;;;;;;;9.20;48.89;99060.27;3542585;81;98200;-77
2022/04/05 16:27:36;;;;;;;9.03;3.00;;;;;;;9.10;49.54;99056.98;3528037;81;98778;-76
2022/04/05 16:32:37;;;;;;;10.40;3.30;;;;;;;8.94;49.66;99068.24;3565217;81;98415;-78
2022/04/05 16:37:39;;;;;;;8.90;2.30;;;;;;;8.81;50.08;99067.90;3568577;80;98528;-77
2022/04/05 16:42:42;;;;;;;8.93;2.73;;;;;;;8.70;50.93;99085.55;3541431;81;98306;-78
2022/04/05 16:47:43;;;;;;;6.95;1.70;;;;;;;8.59;51.24;99076.00;3545725;81;98459;-77
2022/04/05 16:52:46;;;;;;;7.70;2.37;;;;;;;8.50;51.94;99078.97;3562626;81;98713;-77
2022/04/05 16:57:47;;;;;;;5.62;1.90;;;;;;;8.45;52.81;99078.00;3507325;81;98659;-77
2022/04/05 17:02:48;;;;;;;7.07;1.90;;;;;;;8.40;53.21;99081.91;3477391;82;98257;-78
2022/04/05 17:07:49;;;;;;;17.07;6.73;;;;;;;8.36;54.23;99081.16;3491013;82;98294;-78
2022/04/05 17:12:52;;;;;;;11.63;4.07;;;;;;;8.24;55.08;99085.65;3504386;81;98841;-79
2022/04/05 17:17:54;;;;;;;6.75;2.35;;;;;;;8.12;56.43;99080.55;3494059;82;98536;-79
2022/04/05 17:22:57;;;;;;;10.27;2.60;;;;;;;8.04;56.95;99080.95;3492784;81;98286;-78
2022/04/05 17:27:58;;;;;;;9.35;2.60;;;;;;;7.95;57.96;99081.34;3470896;82;98241;-78
2022/04/05 17:33:01;;;;;;;4.60;1.77;;;;;;;7.83;58.71;99084.48;3493957;82;98276;-78
2022/04/05 17:38:05;;;;;;;6.08;2.27;;;;;;;7.76;58.86;99079.58;3510717;82;98709;-77
2022/04/05 17:43:06;;;;;;;11.80;2.52;;;;;;;7.72;59.31;99074.11;3514555;82;98474;-78
2022/04/05 17:48:11;;;;;;;5.73;2.17;;;;;;;7.69;59.83;99070.77;3511446;82;98556;-78
2022/04/05 17:53:12;;;;;;;9.65;2.80;;;;;;;7.58;60.64;99074.69;3516837;82;98399;-77
2022/04/05 17:58:13;;;;;;;18.70;4.37;;;;;;;7.58;60.64;99074.69;3529586;81;98315;-79
2022/04/05 18:03:15;;;;;;;15.53;5.53;;;;;;;7.54;61.33;99073.89;3516652;81;98786;-77
2022/04/05 18:08:21;;;;;;;37.28;13.68;;;;;;;7.49;62.03;99075.64;3521421;81;98571;-78
2022/04/05 18:13:25;;;;;;;60.48;23.35;;;;;;;7.46;62.48;99078.56;3527773;81;98751;-79
2022/04/05 18:18:26;;;;;;;22.32;8.48;;;;;;;7.43;63.09;99075.83;3507421;81;99012;-78
2022/04/05 18:23:27;;;;;;;21.17;9.27;;;;;;;7.40;63.84;99076.02;3546892;81;98798;-78
2022/04/05 18:28:29;;;;;;;27.37;11.53;;;;;;;7.36;64.76;99079.92;3507104;81;98702;-79
2022/04/05 18:33:32;;;;;;;37.33;14.87;;;;;;;7.33;65.27;99072.48;3545875;81;99146;-77
2022/04/05 18:38:36;;;;;;;24.80;10.78;;;;;;;7.30;65.62;99074.64;3508064;81;98919;-78
2022/04/05 18:43:37;;;;;;;22.70;11.20;;;;;;;7.23;66.06;99071.29;3526974;81;98583;-79
2022/04/05 18:48:40;;;;;;;30.10;12.10;;;;;;;7.19;66.32;99068.36;3560921;81;98595;-79
2022/04/05 18:53:42;;;;;;;28.03;10.60;;;;;;;7.13;66.37;99058.36;3569592;81;98634;-77
2022/04/05 18:58:45;;;;;;;22.93;9.10;;;;;;;7.07;66.71;99055.01;3579944;81;98609;-78
2022/04/05 19:03:48;;;;;;;20.70;9.63;;;;;;;7.02;67.14;99064.95;3544501;81;98427;-80
2022/04/05 19:08:55;;;;;;;32.98;14.45;;;;;;;7.00;67.56;99064.57;3597547;81;99324;-82
2022/04/05 19:14:02;;;;;;;20.85;8.00;;;;;;;6.94;68.23;99065.55;3546297;81;98620;-79
2022/04/05 19:19:00;;;;;;;20.65;7.35;;;;;;;6.89;68.73;99065.91;3559494;81;98365;-81
2022/04/05 19:24:02;;;;;;;14.35;6.00;;;;;;;6.88;69.50;99063.55;3563589;81;98800;-80
2022/04/05 19:29:04;;;;;;;14.73;5.80;;;;;;;6.86;70.03;99057.09;3579353;81;98591;-81
2022/04/05 19:34:10;;;;;;;12.37;4.17;;;;;;;6.86;71.44;99050.83;3498435;81;98832;-81
2022/04/05 19:39:13;;;;;;;16.37;5.95;;;;;;;6.85;72.27;99046.54;3496655;81;98544;-82
2022/04/05 19:44:18;;;;;;;17.50;6.65;;;;;;;6.86;72.99;99049.47;3518619;81;98465;-80
2022/04/05 19:49:19;;;;;;;27.22;11.30;;;;;;;6.84;73.41;99047.71;3523442;80;98531;-81
2022/04/05 19:54:24;;;;;;;19.57;8.10;;;;;;;6.84;74.01;99045.77;3534047;81;98695;-80
2022/04/05 19:59:29;;;;;;;19.87;7.60;;;;;;;6.84;74.38;99041.67;3520278;81;98590;-80
2022/04/05 20:04:29;;;;;;;18.57;8.27;;;;;;;6.83;74.93;99038.72;3544292;81;98585;-80
2022/04/05 20:09:30;;;;;;;21.15;8.13;;;;;;;6.85;75.56;99034.23;3540490;81;98448;-80
2022/04/05 20:14:33;;;;;;;20.97;7.70;;;;;;;6.85;76.74;99032.87;3562141;81;98108;-79
2022/04/05 20:19:38;;;;;;;24.98;8.48;;;;;;;6.84;77.00;99036.77;3555353;81;98627;-79
2022/04/05 20:24:40;;;;;;;17.50;7.60;;;;;;;6.87;77.36;99030.55;3510501;81;98578;-78
2022/04/05 20:29:42;;;;;;;17.62;7.33;;;;;;;6.88;77.90;99035.61;3546155;81;98453;-77
2022/04/05 20:34:44;;;;;;;13.50;6.83;;;;;;;6.89;78.61;99042.67;3550162;81;98436;-77
2022/04/05 20:39:47;;;;;;;13.10;6.22;;;;;;;6.89;79.22;99028.20;3579047;81;108217;-80
2022/04/05 20:44:48;;;;;;;13.93;6.73;;;;;;;6.88;79.65;99021.17;3520129;81;98850;-78
2022/04/05 20:49:50;;;;;;;15.88;7.33;;;;;;;6.88;79.89;99023.91;3566153;81;98515;-80
2022/04/05 20:54:52;;;;;;;12.65;6.30;;;;;;;6.87;80.69;99026.45;3567792;81;98483;-80
2022/04/05 20:59:54;;;;;;;14.53;7.05;;;;;;;6.85;80.51;99015.89;3530085;81;98386;-80
2022/04/05 21:04:55;;;;;;;22.10;10.83;;;;;;;6.87;80.99;99007.31;3573756;81;98439;-80
2022/04/05 21:09:58;;;;;;;21.97;8.90;;;;;;;6.85;81.69;99000.85;3571828;80;98412;-81
2022/04/05 21:14:59;;;;;;;19.02;8.65;;;;;;;6.83;82.42;99006.50;3504572;81;98172;-80
2022/04/05 21:20:01;;;;;;;21.57;9.10;;;;;;;6.81;82.41;99000.66;3575291;80;122436;-79
2022/04/05 21:25:03;;;;;;;17.62;8.55;;;;;;;6.79;82.88;98995.56;3542454;81;98663;-79
2022/04/05 21:30:06;;;;;;;15.45;6.85;;;;;;;6.80;83.04;99001.80;3529435;80;98382;-81
2022/04/05 21:35:08;;;;;;;17.80;7.33;;;;;;;6.79;83.19;98995.56;3520075;81;98619;-82
2022/04/05 21:40:12;;;;;;;14.23;6.20;;;;;;;6.80;84.35;98992.23;3540438;81;98597;-81
2022/04/05 21:45:14;;;;;;;14.00;5.80;;;;;;;6.79;84.02;98994.77;3567553;81;98086;-82
2022/04/05 21:50:15;;;;;;;13.78;6.72;;;;;;;6.78;84.23;98987.17;3554437;81;99103;-83
2022/04/05 21:55:16;;;;;;;13.50;6.20;;;;;;;6.79;85.08;98983.27;3560252;81;98594;-82
2022/04/05 22:00:18;;;;;;;13.13;6.13;;;;;;;6.80;85.33;98996.33;3562129;80;98638;-83
2022/04/05 22:05:20;;;;;;;14.18;6.75;;;;;;;6.78;85.69;98987.17;3559072;81;98904;-82
2022/04/05 22:10:21;;;;;;;13.48;6.22;;;;;;;6.79;85.79;98998.30;3540322;81;98933;-82
2022/04/05 22:15:22;;;;;;;14.00;6.60;;;;;;;6.79;86.21;98989.30;3539139;81;99485;-82
2022/04/05 22:20:24;;;;;;;12.67;6.30;;;;;;;6.79;86.27;98992.03;3554562;80;98741;-81
2022/04/05 22:25:25;;;;;;;15.77;6.90;;;;;;;6.80;86.57;98986.75;3545223;81;98417;-82
2022/04/05 22:30:27;;;;;;;15.07;6.93;;;;;;;6.80;87.51;98993.59;3548227;81;98470;-82
2022/04/05 22:35:29;;;;;;;15.53;7.35;;;;;;;6.79;87.19;98977.79;3577316;81;98631;-82
2022/04/05 22:40:31;;;;;;;21.30;10.40;;;;;;;6.80;87.50;98986.19;3581339;80;99113;-79
2022/04/05 22:45:32;;;;;;;19.07;7.90;;;;;;;6.81;87.73;98988.34;3598075;80;98950;-80
2022/04/05 22:50:34;;;;;;;21.63;9.07;;;;;;;6.80;87.99;98982.66;3545110;80;98146;-81
2022/04/05 22:55:35;;;;;;;13.38;7.35;;;;;;;6.79;89.00;98971.53;3584834;81;98575;-82
2022/04/05 23:00:36;;;;;;;16.62;8.68;;;;;;;6.78;88.74;98978.17;3486561;81;98563;-81
2022/04/05 23:05:37;;;;;;;18.50;9.27;;;;;;;6.80;89.15;98980.72;3577779;79;98730;-81
2022/04/05 23:10:38;;;;;;;17.77;8.90;;;;;;;6.80;89.32;98977.98;3576106;78;98375;-81
2022/04/05 23:15:39;;;;;;;17.50;9.40;;;;;;;6.80;89.68;98990.86;3562468;78;98806;-81
2022/04/05 23:20:43;;;;;;;13.23;8.07;;;;;;;6.77;89.86;98999.25;3619874;78;98466;-81
2022/04/05 23:25:45;;;;;;;16.07;8.45;;;;;;;6.76;89.58;99001.02;3541038;78;98774;-81
2022/04/05 23:30:46;;;;;;;16.40;7.40;;;;;;;6.72;89.15;98998.86;3566646;79;98521;-80
2022/04/05 23:35:47;;;;;;;14.87;7.05;;;;;;;6.68;88.60;99000.78;3594877;78;98406;-80
2022/04/05 23:40:49;;;;;;;10.73;6.10;;;;;;;6.62;88.28;99004.48;3525504;80;98460;-81
2022/04/05 23:45:50;;;;;;;9.90;5.62;;;;;;;6.58;88.10;99011.09;3587415;78;98510;-82
2022/04/05 23:50:53;;;;;;;12.07;5.73;;;;;;;6.54;87.86;99002.11;3598555;78;98321;-82